createdAt,value
2022-12-11T03:51:02.229Z,97415.78
2022-12-11T04:21:24.815Z,97402.66
2022-12-11T04:51:29.626Z,97397.13
2022-12-11T05:21:35.351Z,97388.03
2022-12-11T05:51:41.279Z,97372.53
2022-12-11T06:21:46.552Z,97370.88
2022-12-11T06:51:50.696Z,97361.25
2022-12-11T07:21:54.873Z,97369.44
2022-12-11T07:51:59.005Z,97356.19
2022-12-11T08:22:03.314Z,97383.25
2022-12-11T08:52:08.190Z,97382.00
2022-12-11T09:22:12.909Z,97372.72
2022-12-11T10:18:31.110Z,97354.09
2022-12-11T10:48:35.512Z,97343.41
2022-12-11T11:18:41.809Z,97322.88
2022-12-11T11:48:52.469Z,97297.41
2022-12-11T12:19:04.964Z,97280.66
2022-12-11T12:49:14.064Z,97270.34
2022-12-11T13:19:29.776Z,97266.53
2022-12-11T13:49:36.870Z,97281.38
2022-12-11T14:19:41.136Z,97291.03
2022-12-11T14:49:48.879Z,97309.38
2022-12-11T15:19:54.992Z,97317.09
2022-12-11T15:50:01.932Z,97319.91
2022-12-11T16:20:07.576Z,97323.78
2022-12-11T16:50:13.924Z,97315.88
2022-12-11T17:20:18.274Z,97301.47
2022-12-11T17:50:22.380Z,97310.09
2022-12-11T18:20:26.645Z,97315.69
2022-12-11T18:50:30.810Z,97308.41
2022-12-11T19:20:57.969Z,97311.13
2022-12-11T19:51:06.033Z,97309.22
2022-12-11T20:21:13.131Z,97298.16
2022-12-11T20:51:25.673Z,97305.09
2022-12-11T21:21:32.550Z,97308.69
2022-12-11T21:51:43.959Z,97311.00
2022-12-11T22:21:50.993Z,97328.53
2022-12-11T22:51:57.246Z,97334.81
2022-12-11T23:22:01.282Z,97322.94
2022-12-11T23:52:05.878Z,97336.78
